createdAt,value
2022-12-04T00:00:21.588Z,101039.66
2022-12-04T00:03:24.040Z,101032.81
2022-12-04T00:06:27.212Z,101041.75
2022-12-04T00:09:29.771Z,101044.50
2022-12-04T00:12:31.933Z,101043.53
2022-12-04T00:15:34.377Z,101037.53
2022-12-04T00:18:36.727Z,101035.88
2022-12-04T00:21:41.518Z,101032.84
2022-12-04T00:24:44.062Z,101030.13
2022-12-04T00:27:46.460Z,101038.59
2022-12-04T00:30:48.602Z,101044.94
2022-12-04T00:33:51.409Z,101040.16
2022-12-04T00:36:53.554Z,101048.34
2022-12-04T00:39:56.160Z,101049.69
2022-12-04T00:42:58.514Z,101039.06
2022-12-04T00:46:00.939Z,101040.28
2022-12-04T00:49:03.247Z,101042.28
2022-12-04T00:52:05.613Z,101033.75
2022-12-04T00:55:08.616Z,101040.63
2022-12-04T00:58:12.022Z,101039.12
2022-12-04T01:01:18.573Z,101036.16
2022-12-04T01:04:21.280Z,101042.31
2022-12-04T01:07:23.453Z,101032.66
2022-12-04T01:10:25.884Z,101040.44
2022-12-04T01:13:28.014Z,101050.84
2022-12-04T01:16:36.159Z,101042.75
2022-12-04T01:19:40.750Z,101043.44
2022-12-04T01:22:43.230Z,101043.41
2022-12-04T01:25:54.166Z,101041.78
2022-12-04T01:28:56.584Z,101051.25
2022-12-04T01:31:59.103Z,101046.69
2022-12-04T01:35:01.737Z,101045.00
2022-12-04T01:38:03.870Z,101045.56
2022-12-04T01:41:07.723Z,101044.41
2022-12-04T01:44:19.926Z,101041.22
2022-12-04T01:47:22.658Z,101049.06
2022-12-04T01:50:25.065Z,101050.94
2022-12-04T01:53:29.274Z,101053.72
2022-12-04T01:56:36.728Z,101048.72
2022-12-04T01:59:50.346Z,101043.16
2022-12-04T02:02:52.944Z,101045.66
2022-12-04T02:05:55.426Z,101029.31
2022-12-04T02:08:58.020Z,101024.56
2022-12-04T02:12:23.790Z,101014.72
2022-12-04T02:15:45.642Z,101012.19
2022-12-04T02:19:26.682Z,101019.22
2022-12-04T02:23:00.994Z,101024.09
2022-12-04T02:26:12.458Z,101019.72
2022-12-04T02:29:17.740Z,101027.69
2022-12-04T02:32:27.898Z,101028.06
2022-12-04T02:35:38.719Z,101022.00
2022-12-04T02:38:48.318Z,101018.50
2022-12-04T02:42:04.457Z,101027.37
2022-12-04T02:45:16.538Z,101028.28
2022-12-04T02:48:21.052Z,101038.28
2022-12-04T02:51:30.057Z,101033.37
2022-12-04T02:54:40.190Z,101030.88
2022-12-04T02:57:48.622Z,101032.69
2022-12-04T03:00:54.520Z,101021.25
2022-12-04T03:04:12.432Z,101022.34
2022-12-04T03:07:19.848Z,101018.00
2022-12-04T03:10:28.033Z,101009.72
2022-12-04T03:13:41.771Z,101009.78
2022-12-04T03:16:48.411Z,101009.09
2022-12-04T03:19:56.992Z,101006.25
2022-12-04T03:23:03.405Z,101015.91
2022-12-04T03:26:22.712Z,101012.47
2022-12-04T03:29:33.677Z,101019.16
2022-12-04T03:32:55.662Z,101012.31
2022-12-04T03:36:10.093Z,101012.31
2022-12-04T03:39:20.864Z,101005.59
2022-12-04T03:42:28.795Z,101012.72
2022-12-04T03:45:44.190Z,101011.09
2022-12-04T03:48:53.843Z,101029.06
2022-12-04T03:52:04.689Z,101029.94
2022-12-04T03:55:15.692Z,101033.22
2022-12-04T03:58:28.288Z,101032.44
2022-12-04T04:01:38.643Z,101026.50
2022-12-04T04:04:45.320Z,101029.31
2022-12-04T04:07:50.081Z,101020.72
2022-12-04T04:11:22.227Z,101015.44
2022-12-04T04:14:51.131Z,101013.69
2022-12-04T04:18:15.241Z,101017.63
2022-12-04T04:21:42.199Z,101017.69
2022-12-04T04:24:57.891Z,101023.50
2022-12-04T04:28:00.043Z,101021.13
2022-12-04T04:31:45.233Z,101026.31
2022-12-04T04:35:15.200Z,101038.19
2022-12-04T04:38:31.758Z,101041.81
2022-12-04T04:41:46.170Z,101047.37
2022-12-04T04:45:21.827Z,101035.47
2022-12-04T04:48:31.606Z,101034.09
2022-12-04T04:51:36.912Z,101027.03
2022-12-04T04:54:39.793Z,101023.53
2022-12-04T04:57:42.144Z,101021.66
2022-12-04T05:00:56.456Z,101017.31
2022-12-04T05:03:58.868Z,101029.56
2022-12-04T05:07:01.038Z,101027.88
2022-12-04T05:10:04.690Z,101043.03
2022-12-04T05:13:06.820Z,101031.97
2022-12-04T05:16:13.258Z,101036.13
2022-12-04T05:19:34.654Z,101036.75
2022-12-04T05:22:37.425Z,101035.97
2022-12-04T05:25:39.608Z,101030.97
2022-12-04T05:28:45.149Z,101026.53
2022-12-04T05:31:47.294Z,101023.06
2022-12-04T05:34:51.759Z,101024.00
2022-12-04T05:37:53.962Z,101030.34
2022-12-04T05:41:00.510Z,101026.06
2022-12-04T05:44:02.605Z,101026.00
2022-12-04T05:47:06.008Z,101020.50
2022-12-04T05:50:10.094Z,101026.75
2022-12-04T05:53:12.816Z,101016.37
2022-12-04T05:56:17.380Z,101020.03
2022-12-04T05:59:21.510Z,101020.81
2022-12-04T06:02:23.748Z,101024.03
2022-12-04T06:05:26.329Z,101037.13
2022-12-04T06:08:31.180Z,101026.78
2022-12-04T06:11:36.541Z,101031.62
2022-12-04T06:14:39.997Z,101021.34
2022-12-04T06:17:42.579Z,101019.78
2022-12-04T06:20:44.806Z,101027.06
2022-12-04T06:23:47.624Z,101036.84
2022-12-04T06:27:25.782Z,101038.38
2022-12-04T06:30:13.160Z,101043.03
2022-12-04T06:33:15.356Z,101044.56
2022-12-04T06:36:21.121Z,101033.00
2022-12-04T06:39:23.380Z,101040.84
2022-12-04T06:42:26.151Z,101043.53
2022-12-04T06:45:28.341Z,101036.16
2022-12-04T06:48:31.022Z,101027.97
2022-12-04T06:51:36.473Z,101023.66
2022-12-04T06:54:38.984Z,101019.75
2022-12-04T06:57:41.131Z,101025.69
2022-12-04T07:00:43.863Z,101021.94
2022-12-04T07:03:51.259Z,101027.88
2022-12-04T07:06:54.672Z,101021.25
2022-12-04T07:09:56.982Z,101015.25
2022-12-04T07:12:59.528Z,101024.31
2022-12-04T07:16:04.037Z,101027.72
2022-12-04T07:19:06.592Z,101030.56
2022-12-04T07:22:08.993Z,101033.63
2022-12-04T07:25:11.518Z,101034.72
2022-12-04T07:28:13.973Z,101035.75
2022-12-04T07:31:20.323Z,101037.94
2022-12-04T07:34:22.781Z,101020.78
2022-12-04T07:37:25.253Z,101026.00
2022-12-04T07:40:28.493Z,101029.59
2022-12-04T07:43:31.865Z,101028.62
2022-12-04T07:46:34.181Z,101032.72
2022-12-04T07:49:36.718Z,101039.16
2022-12-04T07:52:39.737Z,101037.41
2022-12-04T07:55:42.453Z,101030.50
2022-12-04T07:58:45.281Z,101034.09
2022-12-04T08:01:47.767Z,101037.75
2022-12-04T08:04:51.441Z,101027.09
2022-12-04T08:07:54.535Z,101020.03
2022-12-04T08:10:57.298Z,101020.19
2022-12-04T08:14:01.906Z,101028.72
2022-12-04T08:17:04.333Z,101034.59
2022-12-04T08:20:07.514Z,101030.91
2022-12-04T08:23:10.122Z,101029.84
2022-12-04T08:26:12.799Z,101027.72
2022-12-04T08:29:15.306Z,101013.66
2022-12-04T08:32:17.382Z,101008.56
2022-12-04T08:35:19.743Z,101017.78
2022-12-04T08:38:21.865Z,101029.56
2022-12-04T08:41:26.624Z,101021.44
2022-12-04T08:44:28.776Z,101029.19
2022-12-04T08:47:31.255Z,101026.38
2022-12-04T08:50:33.528Z,101034.94
2022-12-04T08:53:38.884Z,101034.72
2022-12-04T08:56:41.130Z,101033.87
2022-12-04T08:59:43.670Z,101032.00
2022-12-04T09:02:49.776Z,101035.00
2022-12-04T09:05:52.292Z,101038.47
2022-12-04T09:08:55.748Z,101027.94
2022-12-04T09:11:58.188Z,101034.28
2022-12-04T09:15:01.542Z,101032.28
2022-12-04T09:18:04.042Z,101033.22
2022-12-04T09:21:09.372Z,101024.63
2022-12-04T09:24:11.864Z,101027.59
2022-12-04T09:27:15.057Z,101025.84
2022-12-04T09:30:18.177Z,101017.16
2022-12-04T09:33:20.403Z,101021.97
2022-12-04T09:36:23.299Z,101019.53
2022-12-04T09:39:25.538Z,101009.87
2022-12-04T09:42:47.823Z,101002.50
2022-12-04T09:45:55.305Z,100997.06
2022-12-04T09:49:02.139Z,100989.13
2022-12-04T09:52:21.964Z,100984.50
2022-12-04T09:55:44.055Z,100989.59
2022-12-04T09:59:03.111Z,100979.47
2022-12-04T10:02:37.479Z,100985.59
2022-12-04T10:05:58.404Z,100989.50
2022-12-04T10:09:07.715Z,100981.19
2022-12-04T10:12:33.415Z,100969.47
2022-12-04T10:15:52.740Z,100963.91
2022-12-04T10:19:12.800Z,100967.75
2022-12-04T10:22:38.155Z,100959.19
2022-12-04T10:25:42.129Z,100952.97
2022-12-04T10:28:55.457Z,100952.31
2022-12-04T10:32:16.442Z,100944.53
2022-12-04T10:35:23.252Z,100949.41
2022-12-04T10:38:47.523Z,100936.47
2022-12-04T10:42:00.819Z,100953.97
2022-12-04T10:45:05.870Z,100912.19
2022-12-04T10:48:20.589Z,100918.47
2022-12-04T10:51:24.015Z,100916.69
2022-12-04T10:54:35.821Z,100915.56
2022-12-04T10:57:44.226Z,100914.84
2022-12-04T11:01:05.178Z,100910.84
2022-12-04T11:04:18.565Z,100900.25
2022-12-04T11:07:27.908Z,100896.03
2022-12-04T11:10:41.047Z,100884.44
2022-12-04T11:13:43.238Z,100884.87
2022-12-04T11:16:51.989Z,100873.38
2022-12-04T11:20:21.902Z,100867.72
2022-12-04T11:23:26.738Z,100866.16
2022-12-04T11:26:35.338Z,100870.03
2022-12-04T11:29:43.040Z,100873.66
2022-12-04T11:32:46.372Z,100871.25
2022-12-04T11:35:55.687Z,100862.00
2022-12-04T11:39:15.635Z,100854.91
2022-12-04T11:42:28.051Z,100855.56
2022-12-04T11:45:30.983Z,100854.16
2022-12-04T11:48:43.461Z,100849.06
2022-12-04T11:52:23.433Z,100845.25
2022-12-04T11:55:38.793Z,100839.47
2022-12-04T11:58:49.913Z,100835.72
2022-12-04T12:02:11.427Z,100828.44
2022-12-04T12:05:23.243Z,100833.63
2022-12-04T12:08:31.740Z,100828.00
2022-12-04T12:11:50.437Z,100827.16
2022-12-04T12:15:18.616Z,100833.56
2022-12-04T12:18:37.447Z,100842.62
2022-12-04T12:22:11.993Z,100844.97
2022-12-04T12:25:29.862Z,100842.62
2022-12-04T12:28:38.686Z,100838.41
2022-12-04T12:32:00.768Z,100837.63
2022-12-04T12:35:13.329Z,100843.25
2022-12-04T12:38:21.124Z,100845.94
2022-12-04T12:41:29.337Z,100841.22
2022-12-04T12:44:51.385Z,100844.19
2022-12-04T12:48:00.545Z,100844.88
2022-12-04T12:51:31.474Z,100833.19
2022-12-04T12:54:44.533Z,100834.91
2022-12-04T12:57:56.368Z,100836.13
2022-12-04T13:01:08.084Z,100837.81
2022-12-04T13:04:41.844Z,100837.81
2022-12-04T13:08:00.464Z,100831.69
2022-12-04T13:11:17.284Z,100831.59
2022-12-04T13:14:19.868Z,100826.56
2022-12-04T13:17:35.643Z,100823.59
2022-12-04T13:20:46.120Z,100822.34
2022-12-04T13:24:01.306Z,100831.47
2022-12-04T13:27:19.095Z,100834.94
2022-12-04T13:30:43.857Z,100847.00
2022-12-04T13:34:03.300Z,100853.72
2022-12-04T13:37:41.261Z,100852.81
2022-12-04T13:40:48.194Z,100852.31
2022-12-04T13:43:53.974Z,100853.16
2022-12-04T13:47:04.318Z,100846.00
2022-12-04T13:50:34.103Z,100847.13
2022-12-04T13:53:40.327Z,100850.19
2022-12-04T13:56:45.878Z,100847.56
2022-12-04T13:59:49.115Z,100843.00
2022-12-04T14:02:57.029Z,100853.09
2022-12-04T14:06:05.411Z,100860.50
2022-12-04T14:09:19.946Z,100867.37
2022-12-04T14:12:32.617Z,100868.72
2022-12-04T14:15:38.793Z,100866.44
2022-12-04T14:18:47.501Z,100870.97
2022-12-04T14:21:49.937Z,100861.28
2022-12-04T14:24:52.584Z,100866.56
2022-12-04T14:27:55.282Z,100855.78
2022-12-04T14:31:04.012Z,100864.37
2022-12-04T14:34:23.684Z,100851.75
2022-12-04T14:37:35.968Z,100864.37
2022-12-04T14:40:44.150Z,100857.66
2022-12-04T14:43:49.940Z,100859.66
2022-12-04T14:46:54.994Z,100860.00
2022-12-04T14:50:15.065Z,100855.00
2022-12-04T14:53:38.437Z,100864.19
2022-12-04T14:56:48.220Z,100859.38
2022-12-04T14:59:53.685Z,100861.44
2022-12-04T15:03:00.018Z,100869.34
2022-12-04T15:06:05.787Z,100873.94
2022-12-04T15:09:36.722Z,100874.69
2022-12-04T15:12:47.141Z,100865.50
2022-12-04T15:15:50.217Z,100873.56
2022-12-04T15:18:58.621Z,100871.00
2022-12-04T15:22:10.095Z,100874.34
2022-12-04T15:25:18.149Z,100879.22
2022-12-04T15:28:23.661Z,100877.16
2022-12-04T15:31:34.971Z,100876.88
2022-12-04T15:34:41.886Z,100873.16
2022-12-04T15:37:44.086Z,100870.31
2022-12-04T15:41:04.883Z,100870.97
2022-12-04T15:44:33.086Z,100870.13
2022-12-04T15:47:53.876Z,100879.91
2022-12-04T15:50:59.122Z,100873.94
2022-12-04T15:54:02.622Z,100873.34
2022-12-04T15:57:26.579Z,100874.41
2022-12-04T16:00:32.860Z,100873.00
2022-12-04T16:03:56.022Z,100876.03
2022-12-04T16:06:58.407Z,100874.91
2022-12-04T16:10:04.261Z,100868.63
2022-12-04T16:13:06.521Z,100867.91
2022-12-04T16:16:14.208Z,100875.94
2022-12-04T16:19:33.121Z,100877.94
2022-12-04T16:22:35.673Z,100869.09
2022-12-04T16:25:37.884Z,100869.47
2022-12-04T16:28:40.508Z,100870.41
2022-12-04T16:31:43.149Z,100869.56
2022-12-04T16:34:46.310Z,100883.41
2022-12-04T16:37:48.690Z,100876.34
2022-12-04T16:40:51.115Z,100876.34
2022-12-04T16:43:56.079Z,100874.00
2022-12-04T16:46:58.608Z,100878.81
2022-12-04T16:50:00.894Z,100875.59
2022-12-04T16:53:03.408Z,100878.69
2022-12-04T16:56:05.762Z,100877.84
2022-12-04T16:59:11.953Z,100877.13
2022-12-04T17:02:27.204Z,100874.13
2022-12-04T17:05:32.118Z,100884.87
2022-12-04T17:08:34.281Z,100880.03
2022-12-04T17:11:37.629Z,100876.47
2022-12-04T17:14:40.530Z,100886.47
2022-12-04T17:17:42.998Z,100884.31
2022-12-04T17:20:45.284Z,100890.50
2022-12-04T17:23:47.766Z,100886.34
2022-12-04T17:26:49.880Z,100879.31
2022-12-04T17:29:54.570Z,100880.34
2022-12-04T17:32:56.820Z,100887.41
2022-12-04T17:36:03.413Z,100887.63
2022-12-04T17:39:07.377Z,100892.81
2022-12-04T17:42:09.964Z,100888.37
2022-12-04T17:45:14.286Z,100894.75
2022-12-04T17:48:16.813Z,100895.56
2022-12-04T17:51:23.692Z,100893.38
2022-12-04T17:54:26.098Z,100892.09
2022-12-04T17:57:28.484Z,100898.56
2022-12-04T18:00:31.049Z,100894.66
2022-12-04T18:03:34.462Z,100895.94
2022-12-04T18:06:40.001Z,100891.72
2022-12-04T18:09:43.888Z,100891.78
2022-12-04T18:12:46.110Z,100896.22
2022-12-04T18:15:48.684Z,100894.00
2022-12-04T18:18:53.640Z,100898.13
2022-12-04T18:21:56.987Z,100899.09
2022-12-04T18:25:00.549Z,100914.03
2022-12-04T18:28:04.527Z,100898.97
2022-12-04T18:31:07.974Z,100914.75
2022-12-04T18:34:11.709Z,100921.47
2022-12-04T18:37:14.004Z,100915.81
2022-12-04T18:40:16.580Z,100921.94
2022-12-04T18:43:18.986Z,100918.94
2022-12-04T18:46:22.373Z,100921.59
2022-12-04T18:49:24.693Z,100923.34
2022-12-04T18:52:27.151Z,100920.78
2022-12-04T18:55:29.331Z,100921.41
2022-12-04T18:58:31.803Z,100916.25
2022-12-04T19:01:34.191Z,100915.56
2022-12-04T19:04:38.676Z,100918.25
2022-12-04T19:07:40.858Z,100914.72
2022-12-04T19:10:43.374Z,100913.84
2022-12-04T19:13:45.623Z,100916.44
2022-12-04T19:16:48.518Z,100908.66
2022-12-04T19:19:51.770Z,100919.78
2022-12-04T19:22:54.244Z,100921.84
2022-12-04T19:25:58.094Z,100915.72
2022-12-04T19:29:02.373Z,100921.00
2022-12-04T19:32:04.839Z,100921.59
2022-12-04T19:35:08.496Z,100916.75
2022-12-04T19:38:11.000Z,100920.28
2022-12-04T19:41:16.608Z,100924.66
2022-12-04T19:47:43.948Z,100927.94
2022-12-04T19:50:46.159Z,100928.87
2022-12-04T19:53:49.140Z,100924.84
2022-12-04T19:56:52.592Z,100926.31
2022-12-04T19:59:55.574Z,100930.78
2022-12-04T20:02:57.880Z,100921.87
2022-12-04T20:06:09.310Z,100927.69
2022-12-04T20:09:14.829Z,100930.56
2022-12-04T20:12:17.380Z,100928.66
2022-12-04T20:15:20.229Z,100933.28
2022-12-04T20:18:22.901Z,100923.91
2022-12-04T20:21:30.820Z,100928.16
2022-12-04T20:24:33.357Z,100929.22
2022-12-04T20:27:35.601Z,100936.72
2022-12-04T20:30:38.202Z,100937.22
2022-12-04T20:33:41.229Z,100943.47
2022-12-04T20:36:45.828Z,100947.25
2022-12-04T20:39:47.969Z,100943.28
2022-12-04T20:42:50.373Z,100944.56
2022-12-04T20:45:52.540Z,100944.44
2022-12-04T20:48:55.067Z,100948.94
2022-12-04T20:51:57.239Z,100950.81
2022-12-04T20:55:00.243Z,100951.06
2022-12-04T20:58:02.446Z,100952.75
2022-12-04T21:01:12.577Z,100948.75
2022-12-04T21:04:18.203Z,100954.41
2022-12-04T21:07:20.694Z,100950.94
2022-12-04T21:10:22.866Z,100948.47
2022-12-04T21:13:43.843Z,100955.47
2022-12-04T21:16:47.187Z,100950.25
2022-12-04T21:19:50.682Z,100943.03
2022-12-04T21:22:52.897Z,100943.03
2022-12-04T21:25:56.155Z,100943.47
2022-12-04T21:28:58.874Z,100942.19
2022-12-04T21:32:02.068Z,100943.41
2022-12-04T21:35:04.698Z,100953.19
2022-12-04T21:38:07.206Z,100957.91
2022-12-04T21:41:10.420Z,100949.41
2022-12-04T21:44:16.970Z,100948.91
2022-12-04T21:47:19.314Z,100948.91
2022-12-04T21:50:21.783Z,100942.22
2022-12-04T21:53:24.309Z,100958.75
2022-12-04T21:56:26.834Z,100957.41
2022-12-04T21:59:29.183Z,100962.69
2022-12-04T22:02:32.502Z,100966.94
2022-12-04T22:05:35.226Z,100966.38
2022-12-04T22:08:40.044Z,100963.72
2022-12-04T22:11:43.164Z,100963.94
2022-12-04T22:14:45.228Z,100964.75
2022-12-04T22:17:47.747Z,100960.88
2022-12-04T22:20:50.006Z,100968.94
2022-12-04T22:23:57.330Z,100965.59
2022-12-04T22:26:59.521Z,100956.09
2022-12-04T22:30:02.513Z,100953.06
2022-12-04T22:33:05.004Z,100960.34
2022-12-04T22:36:12.739Z,100963.06
2022-12-04T22:39:14.910Z,100945.97
2022-12-04T22:42:17.563Z,100944.84
2022-12-04T22:45:19.713Z,100945.72
2022-12-04T22:48:22.453Z,100941.84
2022-12-04T22:51:24.645Z,100940.09
2022-12-04T22:54:27.121Z,100946.66
2022-12-04T22:57:29.436Z,100941.00
2022-12-04T23:00:31.773Z,100947.28
2022-12-04T23:03:34.062Z,100949.53
2022-12-04T23:06:38.469Z,100948.09
2022-12-04T23:09:40.696Z,100946.72
2022-12-04T23:12:43.176Z,100939.00
2022-12-04T23:15:45.470Z,100945.44
2022-12-04T23:18:48.869Z,100938.69
2022-12-04T23:21:56.863Z,100935.06
2022-12-04T23:25:00.190Z,100937.12
2022-12-04T23:28:02.399Z,100934.22
2022-12-04T23:31:05.520Z,100929.84
2022-12-04T23:34:07.912Z,100929.66
2022-12-04T23:37:10.501Z,100937.34
2022-12-04T23:40:13.251Z,100940.16
2022-12-04T23:43:16.502Z,100944.03
2022-12-04T23:46:21.869Z,100941.19
2022-12-04T23:49:24.551Z,100934.34
2022-12-04T23:52:27.066Z,100939.84
2022-12-04T23:55:34.060Z,100951.38
2022-12-04T23:58:37.278Z,100948.22
